sensor_id;sensor_type;location;lat;lon;timestamp;P1;durP1;ratioP1;P2;durP2;ratioP2
28988;SDS011;16089;59.952;10.818;2023-04-24T00:02:18;4.40;;;2.60;;
28988;SDS011;16089;59.952;10.818;2023-04-24T00:04:44;5.25;;;2.30;;
28988;SDS011;16089;59.952;10.818;2023-04-24T00:07:11;4.93;;;2.30;;
28988;SDS011;16089;59.952;10.818;2023-04-24T00:09:38;3.90;;;2.10;;
28988;SDS011;16089;59.952;10.818;2023-04-24T00:12:04;3.28;;;1.98;;
28988;SDS011;16089;59.952;10.818;2023-04-24T00:14:32;4.38;;;2.45;;
28988;SDS011;16089;59.952;10.818;2023-04-24T00:16:59;4.30;;;2.38;;
28988;SDS011;16089;59.952;10.818;2023-04-24T00:19:27;4.22;;;2.67;;
28988;SDS011;16089;59.952;10.818;2023-04-24T00:21:53;4.72;;;2.85;;
28988;SDS011;16089;59.952;10.818;2023-04-24T00:24:20;4.97;;;2.22;;
28988;SDS011;16089;59.952;10.818;2023-04-24T00:26:46;4.45;;;2.38;;
28988;SDS011;16089;59.952;10.818;2023-04-24T00:29:13;4.68;;;2.60;;
28988;SDS011;16089;59.952;10.818;2023-04-24T00:31:40;4.20;;;2.30;;
28988;SDS011;16089;59.952;10.818;2023-04-24T00:34:07;4.78;;;2.58;;
28988;SDS011;16089;59.952;10.818;2023-04-24T00:36:33;4.30;;;2.55;;
28988;SDS011;16089;59.952;10.818;2023-04-24T00:39:00;5.07;;;2.85;;
28988;SDS011;16089;59.952;10.818;2023-04-24T00:41:26;5.28;;;2.72;;
28988;SDS011;16089;59.952;10.818;2023-04-24T00:43:52;5.38;;;2.95;;
28988;SDS011;16089;59.952;10.818;2023-04-24T00:46:19;5.90;;;2.95;;
28988;SDS011;16089;59.952;10.818;2023-04-24T00:48:48;5.80;;;2.78;;
28988;SDS011;16089;59.952;10.818;2023-04-24T00:51:14;4.85;;;2.67;;
28988;SDS011;16089;59.952;10.818;2023-04-24T00:53:40;5.38;;;2.97;;
28988;SDS011;16089;59.952;10.818;2023-04-24T00:56:07;4.55;;;2.45;;
28988;SDS011;16089;59.952;10.818;2023-04-24T00:58:33;4.82;;;2.25;;
28988;SDS011;16089;59.952;10.818;2023-04-24T01:01:00;3.78;;;1.98;;
28988;SDS011;16089;59.952;10.818;2023-04-24T01:03:28;5.50;;;2.45;;
28988;SDS011;16089;59.952;10.818;2023-04-24T01:05:56;3.17;;;1.80;;
28988;SDS011;16089;59.952;10.818;2023-04-24T01:08:23;4.07;;;2.20;;
28988;SDS011;16089;59.952;10.818;2023-04-24T01:10:50;4.40;;;2.20;;
28988;SDS011;16089;59.952;10.818;2023-04-24T01:13:17;4.28;;;2.20;;
28988;SDS011;16089;59.952;10.818;2023-04-24T01:15:44;4.45;;;2.70;;
28988;SDS011;16089;59.952;10.818;2023-04-24T01:18:10;5.68;;;2.47;;
28988;SDS011;16089;59.952;10.818;2023-04-24T01:20:36;5.00;;;2.50;;
28988;SDS011;16089;59.952;10.818;2023-04-24T01:23:06;5.30;;;2.63;;
28988;SDS011;16089;59.952;10.818;2023-04-24T01:25:32;4.97;;;2.65;;
28988;SDS011;16089;59.952;10.818;2023-04-24T01:27:59;7.45;;;2.75;;
28988;SDS011;16089;59.952;10.818;2023-04-24T01:30:25;5.00;;;2.35;;
28988;SDS011;16089;59.952;10.818;2023-04-24T01:32:52;4.65;;;2.30;;
28988;SDS011;16089;59.952;10.818;2023-04-24T01:35:19;4.13;;;2.22;;
28988;SDS011;16089;59.952;10.818;2023-04-24T01:37:45;4.45;;;2.40;;
28988;SDS011;16089;59.952;10.818;2023-04-24T01:40:13;5.32;;;2.70;;
28988;SDS011;16089;59.952;10.818;2023-04-24T01:42:40;4.28;;;2.10;;
28988;SDS011;16089;59.952;10.818;2023-04-24T01:45:07;4.05;;;2.08;;
28988;SDS011;16089;59.952;10.818;2023-04-24T01:47:34;4.20;;;2.15;;
28988;SDS011;16089;59.952;10.818;2023-04-24T01:50:01;5.55;;;2.30;;
28988;SDS011;16089;59.952;10.818;2023-04-24T01:52:27;4.72;;;2.47;;
28988;SDS011;16089;59.952;10.818;2023-04-24T01:54:56;4.20;;;2.28;;
28988;SDS011;16089;59.952;10.818;2023-04-24T01:57:23;5.95;;;2.35;;
28988;SDS011;16089;59.952;10.818;2023-04-24T01:59:50;3.47;;;1.90;;
28988;SDS011;16089;59.952;10.818;2023-04-24T02:02:17;3.55;;;1.67;;
28988;SDS011;16089;59.952;10.818;2023-04-24T02:04:43;3.70;;;1.42;;
28988;SDS011;16089;59.952;10.818;2023-04-24T02:07:09;3.60;;;1.38;;
28988;SDS011;16089;59.952;10.818;2023-04-24T02:09:36;3.30;;;1.48;;
28988;SDS011;16089;59.952;10.818;2023-04-24T02:12:02;2.85;;;1.30;;
28988;SDS011;16089;59.952;10.818;2023-04-24T02:14:30;2.50;;;1.20;;
28988;SDS011;16089;59.952;10.818;2023-04-24T02:16:56;2.50;;;1.20;;
28988;SDS011;16089;59.952;10.818;2023-04-24T02:19:22;3.40;;;1.02;;
28988;SDS011;16089;59.952;10.818;2023-04-24T02:21:49;2.72;;;1.00;;
28988;SDS011;16089;59.952;10.818;2023-04-24T02:24:15;3.95;;;0.95;;
28988;SDS011;16089;59.952;10.818;2023-04-24T02:26:41;2.10;;;0.93;;
28988;SDS011;16089;59.952;10.818;2023-04-24T02:29:08;3.33;;;1.00;;
28988;SDS011;16089;59.952;10.818;2023-04-24T02:31:36;2.42;;;0.90;;
28988;SDS011;16089;59.952;10.818;2023-04-24T02:34:02;1.52;;;0.70;;
28988;SDS011;16089;59.952;10.818;2023-04-24T02:36:28;1.83;;;0.85;;
28988;SDS011;16089;59.952;10.818;2023-04-24T02:38:55;2.30;;;0.82;;
28988;SDS011;16089;59.952;10.818;2023-04-24T02:41:21;1.75;;;0.80;;
28988;SDS011;16089;59.952;10.818;2023-04-24T02:43:48;1.35;;;0.60;;
28988;SDS011;16089;59.952;10.818;2023-04-24T02:46:14;1.38;;;0.70;;
28988;SDS011;16089;59.952;10.818;2023-04-24T02:48:42;1.30;;;0.60;;
28988;SDS011;16089;59.952;10.818;2023-04-24T02:51:08;2.00;;;1.00;;
28988;SDS011;16089;59.952;10.818;2023-04-24T02:53:35;1.60;;;0.60;;
28988;SDS011;16089;59.952;10.818;2023-04-24T02:56:01;1.35;;;0.60;;
28988;SDS011;16089;59.952;10.818;2023-04-24T02:58:27;0.98;;;0.50;;
28988;SDS011;16089;59.952;10.818;2023-04-24T03:00:54;1.48;;;0.55;;
28988;SDS011;16089;59.952;10.818;2023-04-24T03:03:21;1.15;;;0.60;;
28988;SDS011;16089;59.952;10.818;2023-04-24T03:05:48;0.73;;;0.43;;
28988;SDS011;16089;59.952;10.818;2023-04-24T03:08:15;0.93;;;0.50;;
28988;SDS011;16089;59.952;10.818;2023-04-24T03:10:41;2.60;;;1.23;;
28988;SDS011;16089;59.952;10.818;2023-04-24T03:13:07;1.27;;;0.60;;
28988;SDS011;16089;59.952;10.818;2023-04-24T03:15:34;2.00;;;0.60;;
28988;SDS011;16089;59.952;10.818;2023-04-24T03:18:00;2.15;;;0.60;;
28988;SDS011;16089;59.952;10.818;2023-04-24T03:20:27;1.40;;;0.60;;
28988;SDS011;16089;59.952;10.818;2023-04-24T03:22:55;1.27;;;0.60;;
28988;SDS011;16089;59.952;10.818;2023-04-24T03:25:22;0.95;;;0.40;;
28988;SDS011;16089;59.952;10.818;2023-04-24T03:27:48;0.80;;;0.40;;
28988;SDS011;16089;59.952;10.818;2023-04-24T03:30:14;1.75;;;0.68;;
28988;SDS011;16089;59.952;10.818;2023-04-24T03:32:41;1.45;;;0.50;;
28988;SDS011;16089;59.952;10.818;2023-04-24T03:35:07;0.77;;;0.40;;
28988;SDS011;16089;59.952;10.818;2023-04-24T03:37:34;0.93;;;0.50;;
28988;SDS011;16089;59.952;10.818;2023-04-24T03:40:02;1.20;;;0.63;;
28988;SDS011;16089;59.952;10.818;2023-04-24T03:42:28;1.55;;;0.60;;
28988;SDS011;16089;59.952;10.818;2023-04-24T03:44:54;1.52;;;0.80;;
28988;SDS011;16089;59.952;10.818;2023-04-24T03:47:21;1.00;;;0.50;;
28988;SDS011;16089;59.952;10.818;2023-04-24T03:49:47;2.08;;;0.50;;
28988;SDS011;16089;59.952;10.818;2023-04-24T03:52:13;0.65;;;0.40;;
28988;SDS011;16089;59.952;10.818;2023-04-24T03:54:40;1.65;;;0.60;;
28988;SDS011;16089;59.952;10.818;2023-04-24T03:57:07;1.40;;;0.50;;
28988;SDS011;16089;59.952;10.818;2023-04-24T03:59:34;1.05;;;0.50;;
28988;SDS011;16089;59.952;10.818;2023-04-24T04:02:00;0.80;;;0.50;;
28988;SDS011;16089;59.952;10.818;2023-04-24T04:04:26;2.40;;;0.60;;
28988;SDS011;16089;59.952;10.818;2023-04-24T04:06:53;1.20;;;0.40;;
28988;SDS011;16089;59.952;10.818;2023-04-24T04:09:19;2.03;;;0.60;;
28988;SDS011;16089;59.952;10.818;2023-04-24T04:11:45;0.80;;;0.40;;
28988;SDS011;16089;59.952;10.818;2023-04-24T04:14:13;1.13;;;0.50;;
28988;SDS011;16089;59.952;10.818;2023-04-24T04:16:39;0.88;;;0.40;;
28988;SDS011;16089;59.952;10.818;2023-04-24T04:19:06;1.08;;;0.50;;
28988;SDS011;16089;59.952;10.818;2023-04-24T04:21:33;0.30;;;0.20;;
28988;SDS011;16089;59.952;10.818;2023-04-24T04:23:59;0.38;;;0.30;;
28988;SDS011;16089;59.952;10.818;2023-04-24T04:26:25;1.23;;;0.50;;
28988;SDS011;16089;59.952;10.818;2023-04-24T04:28:52;3.05;;;0.40;;
28988;SDS011;16089;59.952;10.818;2023-04-24T04:31:20;1.70;;;0.40;;
28988;SDS011;16089;59.952;10.818;2023-04-24T04:33:46;1.00;;;0.40;;
28988;SDS011;16089;59.952;10.818;2023-04-24T04:36:13;0.57;;;0.38;;
28988;SDS011;16089;59.952;10.818;2023-04-24T04:38:39;0.70;;;0.38;;
28988;SDS011;16089;59.952;10.818;2023-04-24T04:41:05;0.95;;;0.40;;
28988;SDS011;16089;59.952;10.818;2023-04-24T04:43:32;0.50;;;0.30;;
28988;SDS011;16089;59.952;10.818;2023-04-24T04:45:59;1.85;;;0.45;;
28988;SDS011;16089;59.952;10.818;2023-04-24T04:48:29;0.70;;;0.40;;
28988;SDS011;16089;59.952;10.818;2023-04-24T04:50:56;0.50;;;0.20;;
28988;SDS011;16089;59.952;10.818;2023-04-24T04:53:23;0.63;;;0.32;;
28988;SDS011;16089;59.952;10.818;2023-04-24T04:55:49;1.48;;;0.30;;
28988;SDS011;16089;59.952;10.818;2023-04-24T04:58:15;0.52;;;0.25;;
28988;SDS011;16089;59.952;10.818;2023-04-24T05:00:42;0.70;;;0.40;;
28988;SDS011;16089;59.952;10.818;2023-04-24T05:03:08;0.80;;;0.40;;
28988;SDS011;16089;59.952;10.818;2023-04-24T05:05:36;0.60;;;0.30;;
28988;SDS011;16089;59.952;10.818;2023-04-24T05:08:05;1.23;;;0.30;;
28988;SDS011;16089;59.952;10.818;2023-04-24T05:10:32;2.38;;;0.30;;
28988;SDS011;16089;59.952;10.818;2023-04-24T05:12:58;0.73;;;0.35;;
28988;SDS011;16089;59.952;10.818;2023-04-24T05:15:25;0.95;;;0.28;;
28988;SDS011;16089;59.952;10.818;2023-04-24T05:17:51;0.40;;;0.20;;
28988;SDS011;16089;59.952;10.818;2023-04-24T05:20:18;1.15;;;0.50;;
28988;SDS011;16089;59.952;10.818;2023-04-24T05:22:46;1.17;;;0.50;;
28988;SDS011;16089;59.952;10.818;2023-04-24T05:25:12;0.43;;;0.30;;
28988;SDS011;16089;59.952;10.818;2023-04-24T05:27:38;0.77;;;0.38;;
28988;SDS011;16089;59.952;10.818;2023-04-24T05:30:05;1.17;;;0.30;;
28988;SDS011;16089;59.952;10.818;2023-04-24T05:32:32;0.90;;;0.40;;
28988;SDS011;16089;59.952;10.818;2023-04-24T05:34:59;0.43;;;0.32;;
28988;SDS011;16089;59.952;10.818;2023-04-24T05:37:25;0.85;;;0.40;;
28988;SDS011;16089;59.952;10.818;2023-04-24T05:39:53;1.05;;;0.52;;
28988;SDS011;16089;59.952;10.818;2023-04-24T05:42:19;1.88;;;0.32;;
28988;SDS011;16089;59.952;10.818;2023-04-24T05:44:45;0.60;;;0.40;;
28988;SDS011;16089;59.952;10.818;2023-04-24T05:47:12;0.57;;;0.30;;
28988;SDS011;16089;59.952;10.818;2023-04-24T05:49:38;0.50;;;0.30;;
28988;SDS011;16089;59.952;10.818;2023-04-24T05:52:04;1.25;;;0.40;;
28988;SDS011;16089;59.952;10.818;2023-04-24T05:54:33;0.60;;;0.35;;
28988;SDS011;16089;59.952;10.818;2023-04-24T05:57:01;2.90;;;0.40;;
28988;SDS011;16089;59.952;10.818;2023-04-24T05:59:32;0.70;;;0.40;;
28988;SDS011;16089;59.952;10.818;2023-04-24T06:01:58;0.43;;;0.30;;
28988;SDS011;16089;59.952;10.818;2023-04-24T06:04:25;0.68;;;0.40;;
28988;SDS011;16089;59.952;10.818;2023-04-24T06:06:51;1.20;;;0.40;;
28988;SDS011;16089;59.952;10.818;2023-04-24T06:09:22;0.50;;;0.40;;
28988;SDS011;16089;59.952;10.818;2023-04-24T06:11:49;1.77;;;0.63;;
28988;SDS011;16089;59.952;10.818;2023-04-24T06:14:19;2.55;;;1.00;;
28988;SDS011;16089;59.952;10.818;2023-04-24T06:16:46;1.15;;;0.50;;
28988;SDS011;16089;59.952;10.818;2023-04-24T06:19:12;2.20;;;0.60;;
28988;SDS011;16089;59.952;10.818;2023-04-24T06:21:38;1.40;;;0.68;;
28988;SDS011;16089;59.952;10.818;2023-04-24T06:24:05;1.50;;;0.80;;
28988;SDS011;16089;59.952;10.818;2023-04-24T06:26:32;1.52;;;0.57;;
28988;SDS011;16089;59.952;10.818;2023-04-24T06:28:58;1.15;;;0.50;;
28988;SDS011;16089;59.952;10.818;2023-04-24T06:31:26;1.52;;;0.73;;
28988;SDS011;16089;59.952;10.818;2023-04-24T06:33:52;1.75;;;0.70;;
28988;SDS011;16089;59.952;10.818;2023-04-24T06:36:19;2.17;;;0.70;;
28988;SDS011;16089;59.952;10.818;2023-04-24T06:38:45;1.58;;;0.73;;
28988;SDS011;16089;59.952;10.818;2023-04-24T06:41:12;1.30;;;0.60;;
28988;SDS011;16089;59.952;10.818;2023-04-24T06:43:38;1.38;;;0.60;;
28988;SDS011;16089;59.952;10.818;2023-04-24T06:46:04;1.17;;;0.70;;
28988;SDS011;16089;59.952;10.818;2023-04-24T06:48:32;1.02;;;0.50;;
28988;SDS011;16089;59.952;10.818;2023-04-24T06:50:58;1.35;;;0.60;;
28988;SDS011;16089;59.952;10.818;2023-04-24T06:53:25;2.40;;;0.90;;
28988;SDS011;16089;59.952;10.818;2023-04-24T06:55:52;2.03;;;0.90;;
28988;SDS011;16089;59.952;10.818;2023-04-24T06:58:19;2.45;;;0.88;;
28988;SDS011;16089;59.952;10.818;2023-04-24T07:00:45;2.20;;;0.90;;
28988;SDS011;16089;59.952;10.818;2023-04-24T07:03:11;1.65;;;0.82;;
28988;SDS011;16089;59.952;10.818;2023-04-24T07:05:39;1.95;;;0.80;;
28988;SDS011;16089;59.952;10.818;2023-04-24T07:08:06;1.40;;;0.65;;
28988;SDS011;16089;59.952;10.818;2023-04-24T07:10:36;1.40;;;0.70;;
28988;SDS011;16089;59.952;10.818;2023-04-24T07:13:02;1.20;;;0.57;;
28988;SDS011;16089;59.952;10.818;2023-04-24T07:15:29;1.10;;;0.63;;
28988;SDS011;16089;59.952;10.818;2023-04-24T07:17:55;2.13;;;0.80;;
28988;SDS011;16089;59.952;10.818;2023-04-24T07:20:21;1.50;;;0.70;;
28988;SDS011;16089;59.952;10.818;2023-04-24T07:22:49;2.20;;;0.80;;
28988;SDS011;16089;59.952;10.818;2023-04-24T07:25:16;3.38;;;0.80;;
28988;SDS011;16089;59.952;10.818;2023-04-24T07:27:43;1.73;;;0.63;;
28988;SDS011;16089;59.952;10.818;2023-04-24T07:30:10;1.10;;;0.60;;
28988;SDS011;16089;59.952;10.818;2023-04-24T07:32:36;1.17;;;0.50;;
28988;SDS011;16089;59.952;10.818;2023-04-24T07:35:02;2.03;;;0.70;;
28988;SDS011;16089;59.952;10.818;2023-04-24T07:37:29;0.90;;;0.50;;
28988;SDS011;16089;59.952;10.818;2023-04-24T07:39:57;1.25;;;0.60;;
28988;SDS011;16089;59.952;10.818;2023-04-24T07:42:23;2.05;;;0.90;;
28988;SDS011;16089;59.952;10.818;2023-04-24T07:44:49;1.92;;;0.90;;
28988;SDS011;16089;59.952;10.818;2023-04-24T07:47:16;2.35;;;1.00;;
28988;SDS011;16089;59.952;10.818;2023-04-24T07:49:42;2.85;;;0.80;;
28988;SDS011;16089;59.952;10.818;2023-04-24T07:52:09;1.75;;;0.57;;
28988;SDS011;16089;59.952;10.818;2023-04-24T07:54:35;4.55;;;0.80;;
28988;SDS011;16089;59.952;10.818;2023-04-24T07:57:03;1.42;;;0.80;;
28988;SDS011;16089;59.952;10.818;2023-04-24T07:59:31;3.10;;;0.80;;
28988;SDS011;16089;59.952;10.818;2023-04-24T08:01:58;2.50;;;0.90;;
28988;SDS011;16089;59.952;10.818;2023-04-24T08:04:26;2.40;;;0.95;;
28988;SDS011;16089;59.952;10.818;2023-04-24T08:06:52;2.42;;;0.88;;
28988;SDS011;16089;59.952;10.818;2023-04-24T08:09:18;2.20;;;0.88;;
28988;SDS011;16089;59.952;10.818;2023-04-24T08:11:45;1.73;;;0.90;;
28988;SDS011;16089;59.952;10.818;2023-04-24T08:14:12;1.60;;;0.80;;
28988;SDS011;16089;59.952;10.818;2023-04-24T08:16:40;2.10;;;0.82;;
28988;SDS011;16089;59.952;10.818;2023-04-24T08:19:06;1.33;;;0.55;;
28988;SDS011;16089;59.952;10.818;2023-04-24T08:21:33;1.02;;;0.50;;
28988;SDS011;16089;59.952;10.818;2023-04-24T08:23:59;1.08;;;0.50;;
28988;SDS011;16089;59.952;10.818;2023-04-24T08:26:30;1.17;;;0.70;;
28988;SDS011;16089;59.952;10.818;2023-04-24T08:28:56;0.90;;;0.50;;
28988;SDS011;16089;59.952;10.818;2023-04-24T08:31:24;2.35;;;0.60;;
28988;SDS011;16089;59.952;10.818;2023-04-24T08:33:51;1.13;;;0.52;;
28988;SDS011;16089;59.952;10.818;2023-04-24T08:36:17;0.95;;;0.50;;
28988;SDS011;16089;59.952;10.818;2023-04-24T08:38:44;1.17;;;0.60;;
28988;SDS011;16089;59.952;10.818;2023-04-24T08:41:11;3.30;;;1.33;;
28988;SDS011;16089;59.952;10.818;2023-04-24T08:43:37;2.60;;;0.90;;
28988;SDS011;16089;59.952;10.818;2023-04-24T08:46:04;2.40;;;0.90;;
28988;SDS011;16089;59.952;10.818;2023-04-24T08:48:32;4.78;;;2.28;;
28988;SDS011;16089;59.952;10.818;2023-04-24T08:50:59;2.90;;;1.30;;
28988;SDS011;16089;59.952;10.818;2023-04-24T08:53:26;6.07;;;1.05;;
28988;SDS011;16089;59.952;10.818;2023-04-24T08:55:54;2.13;;;0.90;;
28988;SDS011;16089;59.952;10.818;2023-04-24T08:58:20;2.40;;;0.90;;
28988;SDS011;16089;59.952;10.818;2023-04-24T09:00:47;2.75;;;1.05;;
28988;SDS011;16089;59.952;10.818;2023-04-24T09:03:14;2.78;;;0.77;;
28988;SDS011;16089;59.952;10.818;2023-04-24T09:05:43;2.22;;;0.90;;
28988;SDS011;16089;59.952;10.818;2023-04-24T09:08:10;2.38;;;0.90;;
28988;SDS011;16089;59.952;10.818;2023-04-24T09:10:39;2.63;;;1.20;;
28988;SDS011;16089;59.952;10.818;2023-04-24T09:13:05;2.88;;;1.00;;
28988;SDS011;16089;59.952;10.818;2023-04-24T09:15:34;2.97;;;1.00;;
28988;SDS011;16089;59.952;10.818;2023-04-24T09:18:00;2.05;;;0.90;;
28988;SDS011;16089;59.952;10.818;2023-04-24T09:20:26;2.00;;;0.77;;
28988;SDS011;16089;59.952;10.818;2023-04-24T09:22:54;3.35;;;1.40;;
28988;SDS011;16089;59.952;10.818;2023-04-24T09:25:21;2.47;;;0.98;;
28988;SDS011;16089;59.952;10.818;2023-04-24T09:27:47;1.65;;;0.95;;
28988;SDS011;16089;59.952;10.818;2023-04-24T09:30:14;1.38;;;0.85;;
28988;SDS011;16089;59.952;10.818;2023-04-24T09:32:47;9.27;;;1.00;;
28988;SDS011;16089;59.952;10.818;2023-04-24T09:35:14;1.60;;;0.60;;
28988;SDS011;16089;59.952;10.818;2023-04-24T09:37:41;1.23;;;0.52;;
28988;SDS011;16089;59.952;10.818;2023-04-24T09:40:15;3.25;;;1.00;;
28988;SDS011;16089;59.952;10.818;2023-04-24T09:42:45;3.40;;;0.80;;
28988;SDS011;16089;59.952;10.818;2023-04-24T09:45:12;4.18;;;0.82;;
28988;SDS011;16089;59.952;10.818;2023-04-24T09:47:38;1.67;;;0.80;;
28988;SDS011;16089;59.952;10.818;2023-04-24T09:50:15;1.65;;;0.60;;
28988;SDS011;16089;59.952;10.818;2023-04-24T09:52:43;1.50;;;0.65;;
28988;SDS011;16089;59.952;10.818;2023-04-24T09:55:10;1.45;;;0.60;;
28988;SDS011;16089;59.952;10.818;2023-04-24T09:57:42;1.63;;;0.52;;
28988;SDS011;16089;59.952;10.818;2023-04-24T10:00:13;1.65;;;0.55;;
28988;SDS011;16089;59.952;10.818;2023-04-24T10:02:39;1.52;;;0.60;;
28988;SDS011;16089;59.952;10.818;2023-04-24T10:05:06;1.42;;;0.50;;
28988;SDS011;16089;59.952;10.818;2023-04-24T10:07:32;1.88;;;0.70;;
28988;SDS011;16089;59.952;10.818;2023-04-24T10:09:59;0.85;;;0.43;;
28988;SDS011;16089;59.952;10.818;2023-04-24T10:12:26;1.15;;;0.45;;
28988;SDS011;16089;59.952;10.818;2023-04-24T10:14:55;1.48;;;0.57;;
28988;SDS011;16089;59.952;10.818;2023-04-24T10:17:22;2.45;;;0.50;;
28988;SDS011;16089;59.952;10.818;2023-04-24T10:19:48;0.65;;;0.40;;
28988;SDS011;16089;59.952;10.818;2023-04-24T10:22:15;1.10;;;0.60;;
28988;SDS011;16089;59.952;10.818;2023-04-24T10:24:41;1.30;;;0.52;;
28988;SDS011;16089;59.952;10.818;2023-04-24T10:27:08;1.33;;;0.43;;
28988;SDS011;16089;59.952;10.818;2023-04-24T10:29:35;3.08;;;0.30;;
28988;SDS011;16089;59.952;10.818;2023-04-24T10:32:03;1.33;;;0.50;;
28988;SDS011;16089;59.952;10.818;2023-04-24T10:34:29;1.10;;;0.35;;
28988;SDS011;16089;59.952;10.818;2023-04-24T10:36:56;1.38;;;0.40;;
28988;SDS011;16089;59.952;10.818;2023-04-24T10:39:22;1.63;;;0.50;;
28988;SDS011;16089;59.952;10.818;2023-04-24T10:41:49;0.50;;;0.30;;
28988;SDS011;16089;59.952;10.818;2023-04-24T10:44:15;1.17;;;0.55;;
28988;SDS011;16089;59.952;10.818;2023-04-24T10:46:42;1.55;;;0.40;;
28988;SDS011;16089;59.952;10.818;2023-04-24T10:49:10;0.80;;;0.45;;
28988;SDS011;16089;59.952;10.818;2023-04-24T10:51:46;2.65;;;0.43;;
28988;SDS011;16089;59.952;10.818;2023-04-24T10:54:23;0.73;;;0.30;;
28988;SDS011;16089;59.952;10.818;2023-04-24T10:56:49;2.67;;;0.50;;
28988;SDS011;16089;59.952;10.818;2023-04-24T10:59:23;1.02;;;0.40;;
28988;SDS011;16089;59.952;10.818;2023-04-24T11:01:52;0.75;;;0.28;;
28988;SDS011;16089;59.952;10.818;2023-04-24T11:04:24;0.95;;;0.40;;
28988;SDS011;16089;59.952;10.818;2023-04-24T11:06:54;1.92;;;0.32;;
28988;SDS011;16089;59.952;10.818;2023-04-24T11:09:21;0.77;;;0.40;;
28988;SDS011;16089;59.952;10.818;2023-04-24T11:11:47;1.20;;;0.40;;
28988;SDS011;16089;59.952;10.818;2023-04-24T11:14:14;1.60;;;0.60;;
28988;SDS011;16089;59.952;10.818;2023-04-24T11:16:44;0.95;;;0.40;;
28988;SDS011;16089;59.952;10.818;2023-04-24T11:19:17;0.98;;;0.40;;
28988;SDS011;16089;59.952;10.818;2023-04-24T11:21:46;0.63;;;0.30;;
28988;SDS011;16089;59.952;10.818;2023-04-24T11:24:23;1.40;;;0.52;;
28988;SDS011;16089;59.952;10.818;2023-04-24T11:26:50;2.10;;;0.50;;
28988;SDS011;16089;59.952;10.818;2023-04-24T11:29:17;0.50;;;0.32;;
28988;SDS011;16089;59.952;10.818;2023-04-24T11:31:45;1.20;;;0.40;;
28988;SDS011;16089;59.952;10.818;2023-04-24T11:34:14;1.17;;;0.40;;
28988;SDS011;16089;59.952;10.818;2023-04-24T11:36:42;0.80;;;0.40;;
28988;SDS011;16089;59.952;10.818;2023-04-24T11:39:10;1.50;;;0.60;;
28988;SDS011;16089;59.952;10.818;2023-04-24T11:41:37;2.28;;;0.57;;
28988;SDS011;16089;59.952;10.818;2023-04-24T11:44:05;1.85;;;0.50;;
28988;SDS011;16089;59.952;10.818;2023-04-24T11:46:32;1.25;;;0.50;;
28988;SDS011;16089;59.952;10.818;2023-04-24T11:48:58;0.70;;;0.40;;
28988;SDS011;16089;59.952;10.818;2023-04-24T11:51:26;0.77;;;0.43;;
28988;SDS011;16089;59.952;10.818;2023-04-24T11:53:52;1.40;;;0.70;;
28988;SDS011;16089;59.952;10.818;2023-04-24T11:56:20;1.45;;;0.40;;
28988;SDS011;16089;59.952;10.818;2023-04-24T11:58:47;0.50;;;0.30;;
28988;SDS011;16089;59.952;10.818;2023-04-24T12:01:13;2.05;;;0.60;;
28988;SDS011;16089;59.952;10.818;2023-04-24T12:03:40;1.30;;;0.73;;
28988;SDS011;16089;59.952;10.818;2023-04-24T12:06:08;0.50;;;0.40;;
28988;SDS011;16089;59.952;10.818;2023-04-24T12:08:35;1.52;;;0.32;;
28988;SDS011;16089;59.952;10.818;2023-04-24T12:11:01;4.00;;;0.45;;
28988;SDS011;16089;59.952;10.818;2023-04-24T12:13:30;1.80;;;0.70;;
28988;SDS011;16089;59.952;10.818;2023-04-24T12:15:56;0.88;;;0.40;;
28988;SDS011;16089;59.952;10.818;2023-04-24T12:18:23;3.30;;;0.98;;
28988;SDS011;16089;59.952;10.818;2023-04-24T12:20:50;1.25;;;0.50;;
28988;SDS011;16089;59.952;10.818;2023-04-24T12:23:16;0.57;;;0.40;;
28988;SDS011;16089;59.952;10.818;2023-04-24T12:25:44;1.60;;;0.65;;
28988;SDS011;16089;59.952;10.818;2023-04-24T12:28:11;2.33;;;0.70;;
28988;SDS011;16089;59.952;10.818;2023-04-24T12:30:40;2.38;;;0.70;;
28988;SDS011;16089;59.952;10.818;2023-04-24T12:33:06;1.55;;;0.50;;
28988;SDS011;16089;59.952;10.818;2023-04-24T12:35:33;2.72;;;1.05;;
28988;SDS011;16089;59.952;10.818;2023-04-24T12:38:05;0.65;;;0.30;;
28988;SDS011;16089;59.952;10.818;2023-04-24T12:40:31;0.63;;;0.40;;
28988;SDS011;16089;59.952;10.818;2023-04-24T12:42:57;0.65;;;0.30;;
28988;SDS011;16089;59.952;10.818;2023-04-24T12:45:24;2.28;;;0.60;;
28988;SDS011;16089;59.952;10.818;2023-04-24T12:47:53;1.85;;;0.40;;
28988;SDS011;16089;59.952;10.818;2023-04-24T12:50:20;1.15;;;0.40;;
28988;SDS011;16089;59.952;10.818;2023-04-24T12:52:46;0.68;;;0.40;;
28988;SDS011;16089;59.952;10.818;2023-04-24T12:55:12;1.08;;;0.40;;
28988;SDS011;16089;59.952;10.818;2023-04-24T12:57:39;1.95;;;0.60;;
28988;SDS011;16089;59.952;10.818;2023-04-24T13:00:06;2.28;;;0.98;;
28988;SDS011;16089;59.952;10.818;2023-04-24T13:02:33;0.88;;;0.40;;
28988;SDS011;16089;59.952;10.818;2023-04-24T13:05:01;0.40;;;0.30;;
28988;SDS011;16089;59.952;10.818;2023-04-24T13:07:27;0.60;;;0.40;;
28988;SDS011;16089;59.952;10.818;2023-04-24T13:09:54;0.98;;;0.40;;
28988;SDS011;16089;59.952;10.818;2023-04-24T13:12:20;1.10;;;0.50;;
28988;SDS011;16089;59.952;10.818;2023-04-24T13:14:48;1.65;;;0.38;;
28988;SDS011;16089;59.952;10.818;2023-04-24T13:17:15;0.60;;;0.35;;
28988;SDS011;16089;59.952;10.818;2023-04-24T13:19:42;0.40;;;0.20;;
28988;SDS011;16089;59.952;10.818;2023-04-24T13:22:10;0.47;;;0.30;;
28988;SDS011;16089;59.952;10.818;2023-04-24T13:24:37;0.68;;;0.20;;
28988;SDS011;16089;59.952;10.818;2023-04-24T13:27:04;0.20;;;0.20;;
28988;SDS011;16089;59.952;10.818;2023-04-24T13:29:31;1.15;;;0.20;;
28988;SDS011;16089;59.952;10.818;2023-04-24T13:31:57;0.30;;;0.20;;
28988;SDS011;16089;59.952;10.818;2023-04-24T13:34:24;0.60;;;0.30;;
28988;SDS011;16089;59.952;10.818;2023-04-24T13:36:51;0.35;;;0.20;;
28988;SDS011;16089;59.952;10.818;2023-04-24T13:39:18;0.65;;;0.28;;
28988;SDS011;16089;59.952;10.818;2023-04-24T13:41:45;1.45;;;0.50;;
28988;SDS011;16089;59.952;10.818;2023-04-24T13:44:12;0.35;;;0.20;;
28988;SDS011;16089;59.952;10.818;2023-04-24T13:46:39;0.20;;;0.20;;
28988;SDS011;16089;59.952;10.818;2023-04-24T13:49:05;1.65;;;0.30;;
28988;SDS011;16089;59.952;10.818;2023-04-24T13:51:32;0.65;;;0.30;;
28988;SDS011;16089;59.952;10.818;2023-04-24T13:53:58;0.77;;;0.30;;
28988;SDS011;16089;59.952;10.818;2023-04-24T13:56:26;0.43;;;0.32;;
28988;SDS011;16089;59.952;10.818;2023-04-24T13:58:52;0.93;;;0.30;;
28988;SDS011;16089;59.952;10.818;2023-04-24T14:01:19;2.05;;;0.30;;
28988;SDS011;16089;59.952;10.818;2023-04-24T14:03:49;0.90;;;0.40;;
28988;SDS011;16089;59.952;10.818;2023-04-24T14:06:15;0.43;;;0.30;;
28988;SDS011;16089;59.952;10.818;2023-04-24T14:08:41;0.20;;;0.20;;
28988;SDS011;16089;59.952;10.818;2023-04-24T14:11:08;0.50;;;0.20;;
28988;SDS011;16089;59.952;10.818;2023-04-24T14:13:36;0.63;;;0.30;;
28988;SDS011;16089;59.952;10.818;2023-04-24T14:16:03;0.43;;;0.30;;
28988;SDS011;16089;59.952;10.818;2023-04-24T14:18:29;0.73;;;0.30;;
28988;SDS011;16089;59.952;10.818;2023-04-24T14:20:55;0.40;;;0.22;;
28988;SDS011;16089;59.952;10.818;2023-04-24T14:23:22;0.38;;;0.25;;
28988;SDS011;16089;59.952;10.818;2023-04-24T14:25:48;0.55;;;0.22;;
28988;SDS011;16089;59.952;10.818;2023-04-24T14:28:16;0.30;;;0.17;;
28988;SDS011;16089;59.952;10.818;2023-04-24T14:30:44;0.10;;;0.10;;
28988;SDS011;16089;59.952;10.818;2023-04-24T14:33:10;0.20;;;0.20;;